createdAt,value
2023-01-11T00:00:47.487Z,0.40
2023-01-11T00:03:14.689Z,0.40
2023-01-11T00:05:42.169Z,0.40
2023-01-11T00:08:08.996Z,0.50
2023-01-11T00:10:35.935Z,0.50
2023-01-11T00:13:03.386Z,0.50
2023-01-11T00:15:30.090Z,0.40
2023-01-11T00:17:57.673Z,0.40
2023-01-11T00:20:24.812Z,0.40
2023-01-11T00:22:51.636Z,0.40
2023-01-11T00:25:18.331Z,0.40
2023-01-11T00:27:47.178Z,0.40
2023-01-11T00:30:13.911Z,0.50
2023-01-11T00:32:40.696Z,0.50
2023-01-11T00:35:08.011Z,0.50
2023-01-11T00:37:34.675Z,0.50
2023-01-11T00:40:01.456Z,0.50
2023-01-11T00:42:46.818Z,0.60
2023-01-11T00:45:32.041Z,0.60
2023-01-11T00:48:00.349Z,0.60
2023-01-11T00:50:28.454Z,0.70
2023-01-11T00:52:55.321Z,0.80
2023-01-11T00:55:21.910Z,0.80
2023-01-11T00:57:52.621Z,0.90
2023-01-11T01:00:20.048Z,1.00
2023-01-11T01:02:47.122Z,1.10
2023-01-11T01:05:14.093Z,1.10
2023-01-11T01:07:40.714Z,1.20
2023-01-11T01:10:08.102Z,1.20
2023-01-11T01:12:53.892Z,1.30
2023-01-11T01:15:20.854Z,1.30
2023-01-11T01:17:47.538Z,1.40
2023-01-11T01:20:14.765Z,1.40
2023-01-11T01:22:41.793Z,1.50
2023-01-11T01:25:08.662Z,1.50
2023-01-11T01:27:35.281Z,1.60
2023-01-11T01:30:01.944Z,1.60
2023-01-11T01:32:28.575Z,1.60
2023-01-11T01:34:55.237Z,1.60
2023-01-11T01:37:21.866Z,1.60
2023-01-11T01:39:48.586Z,1.70
2023-01-11T01:42:16.170Z,1.70
2023-01-11T01:44:48.851Z,1.70
2023-01-11T01:47:15.578Z,1.80
2023-01-11T01:49:42.658Z,1.80
2023-01-11T01:52:10.059Z,1.80
2023-01-11T01:54:39.318Z,1.80
2023-01-11T01:57:10.030Z,1.80
2023-01-11T01:59:36.688Z,1.90
2023-01-11T02:02:03.563Z,1.90
2023-01-11T02:04:32.151Z,1.90
2023-01-11T02:07:04.820Z,1.90
2023-01-11T02:09:46.707Z,2.00
2023-01-11T02:12:14.535Z,2.00
2023-01-11T02:14:41.623Z,2.00
2023-01-11T02:17:09.468Z,2.10
2023-01-11T02:19:56.389Z,2.00
2023-01-11T02:22:23.023Z,2.10
2023-01-11T02:25:08.440Z,2.10
2023-01-11T02:27:47.235Z,2.10
2023-01-11T02:30:13.829Z,2.20
2023-01-11T02:32:55.110Z,2.20
2023-01-11T02:35:36.489Z,2.20
2023-01-11T02:38:09.164Z,2.30
2023-01-11T02:40:41.605Z,2.30
2023-01-11T02:43:45.583Z,2.30
2023-01-11T02:46:16.637Z,2.30
2023-01-11T02:49:02.105Z,2.30
2023-01-11T02:51:43.051Z,2.30
2023-01-11T02:54:12.692Z,2.30
2023-01-11T02:56:41.574Z,2.40
2023-01-11T02:59:10.834Z,2.40
2023-01-11T03:01:44.911Z,2.40
2023-01-11T03:04:22.437Z,2.40
2023-01-11T03:06:49.104Z,2.50
2023-01-11T03:09:22.455Z,2.50
2023-01-11T03:12:16.990Z,2.50
2023-01-11T03:14:50.915Z,2.50
2023-01-11T03:17:26.132Z,2.50
2023-01-11T03:19:54.336Z,2.50
2023-01-11T03:22:23.947Z,2.50
2023-01-11T03:24:55.532Z,2.50
2023-01-11T03:27:31.349Z,2.60
2023-01-11T03:30:04.185Z,2.50
2023-01-11T03:32:41.288Z,2.60
2023-01-11T03:35:07.945Z,2.60
2023-01-11T03:37:38.071Z,2.60
2023-01-11T03:40:16.131Z,2.60
2023-01-11T03:43:04.002Z,2.60
2023-01-11T03:45:35.681Z,2.60
2023-01-11T03:48:03.855Z,2.70
2023-01-11T03:50:31.551Z,2.70
2023-01-11T03:52:59.488Z,2.70
2023-01-11T03:55:29.748Z,2.70
2023-01-11T03:57:57.875Z,2.70
2023-01-11T04:00:24.646Z,2.80
2023-01-11T04:02:53.956Z,2.80
2023-01-11T04:05:20.667Z,2.80
2023-01-11T04:07:47.276Z,2.80
2023-01-11T04:10:16.101Z,2.80
2023-01-11T04:12:42.770Z,2.80
2023-01-11T04:15:09.873Z,2.80
2023-01-11T04:17:36.483Z,2.80
2023-01-11T04:20:03.074Z,2.80
2023-01-11T04:22:29.744Z,2.80
2023-01-11T04:24:56.360Z,2.90
2023-01-11T04:27:22.995Z,2.90
2023-01-11T04:29:49.612Z,2.90
2023-01-11T04:32:16.278Z,2.90
2023-01-11T04:34:43.148Z,2.90
2023-01-11T04:37:09.780Z,3.00
2023-01-11T04:39:36.409Z,2.90
2023-01-11T04:42:18.329Z,2.90
2023-01-11T04:44:49.247Z,2.90
2023-01-11T04:47:16.588Z,2.90
2023-01-11T04:49:43.350Z,3.00
2023-01-11T04:52:10.930Z,3.00
2023-01-11T04:54:37.783Z,3.00
2023-01-11T04:57:04.855Z,3.00
2023-01-11T04:59:31.456Z,3.00
2023-01-11T05:01:58.089Z,3.00
2023-01-11T05:04:24.754Z,3.00
2023-01-11T05:06:51.489Z,3.10
2023-01-11T05:09:18.473Z,3.10
2023-01-11T05:11:45.349Z,3.10
2023-01-11T05:14:12.204Z,3.00
2023-01-11T05:16:38.961Z,3.10
2023-01-11T05:19:06.354Z,3.00
2023-01-11T05:21:34.140Z,3.00
2023-01-11T05:24:02.026Z,3.00
2023-01-11T05:26:34.713Z,3.00
2023-01-11T05:29:03.106Z,3.00
2023-01-11T05:31:30.957Z,3.00
2023-01-11T05:33:58.413Z,3.00
2023-01-11T05:36:25.847Z,3.00
2023-01-11T05:38:53.529Z,2.90
2023-01-11T05:41:21.346Z,3.00
2023-01-11T05:44:07.805Z,2.90
2023-01-11T05:46:35.134Z,2.90
2023-01-11T05:49:02.116Z,2.90
2023-01-11T05:51:32.794Z,2.90
2023-01-11T05:54:00.321Z,2.90
2023-01-11T05:56:27.048Z,2.90
2023-01-11T05:58:53.741Z,2.90
2023-01-11T06:01:21.194Z,2.90
2023-01-11T06:03:47.856Z,3.00
2023-01-11T06:06:14.925Z,2.90
2023-01-11T06:08:41.602Z,2.90
2023-01-11T06:11:08.208Z,2.90
2023-01-11T06:13:35.129Z,2.90
2023-01-11T06:16:03.143Z,2.90
2023-01-11T06:18:31.057Z,3.00
2023-01-11T06:20:58.227Z,2.90
2023-01-11T06:23:25.238Z,3.00
2023-01-11T06:25:51.936Z,3.00
2023-01-11T06:28:18.657Z,3.00
2023-01-11T06:30:50.828Z,3.00
2023-01-11T06:33:17.453Z,3.00
2023-01-11T06:35:44.203Z,3.00
2023-01-11T06:38:12.218Z,3.10
2023-01-11T06:40:39.535Z,3.10
2023-01-11T06:43:06.494Z,3.10
2023-01-11T06:45:33.393Z,3.20
2023-01-11T06:48:00.014Z,3.20
2023-01-11T06:50:27.062Z,3.20
2023-01-11T06:52:53.792Z,3.10
2023-01-11T06:55:20.860Z,3.20
2023-01-11T06:57:47.753Z,3.20
2023-01-11T07:00:14.614Z,3.20
2023-01-11T07:02:41.429Z,3.20
2023-01-11T07:05:08.626Z,3.10
2023-01-11T07:07:35.339Z,3.10
2023-01-11T07:10:02.061Z,3.20
2023-01-11T07:12:28.659Z,3.30
2023-01-11T07:14:55.268Z,3.30
2023-01-11T07:17:21.907Z,3.30
2023-01-11T07:19:48.624Z,3.30
2023-01-11T07:22:16.078Z,3.30
2023-01-11T07:24:42.719Z,3.40
2023-01-11T07:27:09.426Z,3.40
2023-01-11T07:29:39.247Z,3.50
2023-01-11T07:32:06.409Z,3.50
2023-01-11T07:34:33.047Z,3.60
2023-01-11T07:36:59.955Z,3.70
2023-01-11T07:39:38.494Z,3.70
2023-01-11T07:42:29.529Z,3.70
2023-01-11T07:44:56.191Z,3.70
2023-01-11T07:47:22.819Z,3.80
2023-01-11T07:49:49.425Z,3.80
2023-01-11T07:52:16.101Z,3.90
2023-01-11T07:54:42.681Z,3.90
2023-01-11T07:57:09.298Z,3.90
2023-01-11T07:59:35.922Z,3.90
2023-01-11T08:02:02.591Z,4.00
2023-01-11T08:04:29.286Z,4.00
2023-01-11T08:06:55.886Z,4.00
2023-01-11T08:09:22.481Z,4.00
2023-01-11T08:12:07.867Z,4.10
2023-01-11T08:14:40.376Z,4.10
2023-01-11T08:17:08.153Z,4.20
2023-01-11T08:19:34.750Z,4.20
2023-01-11T08:22:01.321Z,4.30
2023-01-11T08:24:28.025Z,4.30
2023-01-11T08:26:54.898Z,4.40
2023-01-11T08:29:21.664Z,4.40
2023-01-11T08:31:48.777Z,4.40
2023-01-11T08:34:15.495Z,4.50
2023-01-11T08:36:42.173Z,4.60
2023-01-11T08:39:08.842Z,4.60
2023-01-11T08:41:35.461Z,4.60
2023-01-11T08:44:02.149Z,4.70
2023-01-11T08:46:28.851Z,4.70
2023-01-11T08:48:55.474Z,4.80
2023-01-11T08:51:22.107Z,4.80
2023-01-11T08:53:48.719Z,4.90
2023-01-11T08:56:15.403Z,4.90
2023-01-11T08:58:42.010Z,5.00
2023-01-11T09:01:09.642Z,5.00
2023-01-11T09:03:36.329Z,5.10
2023-01-11T09:06:04.375Z,5.10
2023-01-11T09:08:31.004Z,5.20
2023-01-11T09:10:59.823Z,5.30
2023-01-11T09:13:26.884Z,5.30
2023-01-11T09:15:57.311Z,5.30
2023-01-11T09:18:26.747Z,5.40
2023-01-11T09:20:53.940Z,5.40
2023-01-11T09:23:20.589Z,5.40
2023-01-11T09:25:47.207Z,5.50
2023-01-11T09:28:13.844Z,5.50
2023-01-11T09:30:40.489Z,5.60
2023-01-11T09:33:07.139Z,5.60
2023-01-11T09:35:34.919Z,5.70
2023-01-11T09:38:02.543Z,5.70
2023-01-11T09:40:42.101Z,5.70
2023-01-11T09:43:11.622Z,5.70
2023-01-11T09:45:46.602Z,5.80
2023-01-11T09:48:33.256Z,5.80
2023-01-11T09:51:01.533Z,5.90
2023-01-11T09:53:37.594Z,5.90
2023-01-11T09:56:06.293Z,5.90
2023-01-11T09:58:53.503Z,5.90
2023-01-11T10:01:31.026Z,6.00
2023-01-11T10:04:21.898Z,6.00
2023-01-11T10:07:10.234Z,6.10
2023-01-11T10:18:34.386Z,6.20
2023-01-11T10:19:30.822Z,6.30
2023-01-11T10:21:49.524Z,6.40
2023-01-11T10:24:29.443Z,6.40
2023-01-11T10:26:58.017Z,6.50
2023-01-11T10:29:46.200Z,6.50
2023-01-11T10:32:53.081Z,6.60
2023-01-11T10:35:41.534Z,6.60
2023-01-11T10:38:30.836Z,6.60
2023-01-11T10:41:14.367Z,6.70
2023-01-11T10:43:47.671Z,6.70
2023-01-11T10:46:18.242Z,6.70
2023-01-11T10:48:45.773Z,6.80
2023-01-11T10:51:29.257Z,6.90
2023-01-11T10:53:56.000Z,6.90
2023-01-11T10:56:42.722Z,7.00
2023-01-11T10:59:28.686Z,7.00
2023-01-11T11:01:59.411Z,7.00
2023-01-11T11:04:26.097Z,7.10
2023-01-11T11:06:52.727Z,7.10
2023-01-11T11:09:31.711Z,7.20
2023-01-11T11:12:09.865Z,7.20
2023-01-11T11:15:05.033Z,7.30
2023-01-11T11:17:36.457Z,7.30
2023-01-11T11:20:17.465Z,7.30
2023-01-11T11:22:45.113Z,7.30
2023-01-11T11:25:15.012Z,7.30
2023-01-11T11:27:44.014Z,7.30
2023-01-11T11:30:11.713Z,7.40
2023-01-11T11:32:40.025Z,7.40
2023-01-11T11:35:08.106Z,7.40
2023-01-11T11:37:38.567Z,7.40
2023-01-11T11:40:05.759Z,7.50
2023-01-11T11:42:32.392Z,7.40
2023-01-11T11:45:14.703Z,7.40
2023-01-11T11:47:41.362Z,7.40
2023-01-11T11:50:37.026Z,7.50
2023-01-11T11:53:07.125Z,7.40
2023-01-11T11:55:34.641Z,7.50
2023-01-11T11:58:05.873Z,7.50
2023-01-11T12:00:34.923Z,7.60
2023-01-11T12:03:04.418Z,7.60
2023-01-11T12:05:31.356Z,7.60
2023-01-11T12:07:58.438Z,7.60
2023-01-11T12:10:30.097Z,7.60
2023-01-11T12:13:03.982Z,7.60
2023-01-11T12:15:31.736Z,7.60
2023-01-11T12:18:19.892Z,7.60
2023-01-11T12:20:47.278Z,7.60
2023-01-11T12:23:16.729Z,7.60
2023-01-11T12:25:43.352Z,7.60
2023-01-11T12:28:09.932Z,7.60
2023-01-11T12:30:39.583Z,7.70
2023-01-11T12:33:12.908Z,7.70
2023-01-11T12:35:42.526Z,7.80
2023-01-11T12:38:18.516Z,7.80
2023-01-11T12:41:03.921Z,7.80
2023-01-11T12:43:49.416Z,7.80
2023-01-11T12:46:25.499Z,7.80
2023-01-11T12:49:18.547Z,7.80
2023-01-11T12:51:54.352Z,7.80
2023-01-11T12:54:39.892Z,7.90
2023-01-11T12:57:09.657Z,7.90
2023-01-11T12:59:45.368Z,7.90
2023-01-11T13:02:30.752Z,7.90
2023-01-11T13:05:16.181Z,8.00
2023-01-11T13:08:01.574Z,8.00
2023-01-11T13:10:36.749Z,8.00
2023-01-11T13:13:03.441Z,8.00
2023-01-11T13:15:30.147Z,8.00
2023-01-11T13:18:05.414Z,8.00
2023-01-11T13:20:59.450Z,8.00
2023-01-11T13:23:39.334Z,8.00
2023-01-11T13:26:17.903Z,8.00
2023-01-11T13:28:46.336Z,8.00
2023-01-11T13:31:13.770Z,8.00
2023-01-11T13:33:42.112Z,8.00
2023-01-11T13:36:23.155Z,8.00
2023-01-11T13:39:23.095Z,7.90
2023-01-11T13:41:54.114Z,8.00
2023-01-11T13:44:27.141Z,8.00
2023-01-11T13:47:09.333Z,7.90
2023-01-11T13:49:44.169Z,7.90
2023-01-11T13:52:15.693Z,7.90
2023-01-11T13:54:42.245Z,7.90
2023-01-11T13:57:13.173Z,7.90
2023-01-11T13:59:45.619Z,7.90
2023-01-11T14:02:12.249Z,7.90
2023-01-11T14:04:58.764Z,7.90
2023-01-11T14:07:45.043Z,7.90
2023-01-11T14:10:17.491Z,7.90
2023-01-11T14:12:50.377Z,7.80
2023-01-11T14:15:20.191Z,7.80
2023-01-11T14:17:55.983Z,7.80
2023-01-11T14:20:22.551Z,7.80
2023-01-11T14:22:55.337Z,7.80
2023-01-11T14:25:22.024Z,7.70
2023-01-11T14:28:03.648Z,7.70
2023-01-11T14:30:33.486Z,7.80
2023-01-11T14:33:08.089Z,7.70
2023-01-11T14:35:37.851Z,7.70
2023-01-11T14:38:23.254Z,7.70
2023-01-11T14:40:58.812Z,7.70
2023-01-11T14:43:44.146Z,7.70
2023-01-11T14:46:29.741Z,7.60
2023-01-11T14:48:56.370Z,7.60
2023-01-11T14:51:52.459Z,7.60
2023-01-11T14:54:23.167Z,7.60
2023-01-11T14:56:51.747Z,7.60
2023-01-11T14:59:24.586Z,7.60
2023-01-11T15:02:07.638Z,7.50
2023-01-11T15:04:38.677Z,7.60
2023-01-11T15:07:37.908Z,7.50
2023-01-11T15:10:24.501Z,7.50
2023-01-11T15:12:54.698Z,7.50
2023-01-11T15:15:21.598Z,7.50
2023-01-11T15:18:14.668Z,7.50
2023-01-11T15:21:13.762Z,7.40
2023-01-11T15:23:47.487Z,7.40
2023-01-11T15:26:16.477Z,7.40
2023-01-11T15:28:53.941Z,7.40
2023-01-11T15:31:47.001Z,7.40
2023-01-11T15:34:29.917Z,7.40
2023-01-11T15:37:03.413Z,7.40
2023-01-11T15:39:37.432Z,7.40
2023-01-11T15:42:21.654Z,7.30
2023-01-11T15:45:07.092Z,7.30
2023-01-11T15:47:52.536Z,7.30
2023-01-11T15:50:19.226Z,7.20
2023-01-11T15:53:04.410Z,7.30
2023-01-11T15:55:49.778Z,7.30
2023-01-11T15:58:25.548Z,7.30
2023-01-11T16:01:03.756Z,7.20
2023-01-11T16:03:36.422Z,7.20
2023-01-11T16:06:35.629Z,7.20
2023-01-11T16:09:05.451Z,7.20
2023-01-11T16:11:42.212Z,7.20
2023-01-11T16:14:27.215Z,7.30
2023-01-11T16:16:55.771Z,7.20
2023-01-11T16:19:24.059Z,7.20
2023-01-11T16:21:52.359Z,7.20
2023-01-11T16:24:20.002Z,7.20
2023-01-11T16:27:06.145Z,7.20
2023-01-11T16:29:35.489Z,7.20
2023-01-11T16:32:04.556Z,7.20
2023-01-11T16:34:39.416Z,7.10
2023-01-11T16:37:24.366Z,7.10
2023-01-11T16:39:53.480Z,7.10
2023-01-11T16:42:20.431Z,7.00
2023-01-11T16:44:50.202Z,7.00
2023-01-11T16:47:17.887Z,7.00
2023-01-11T16:49:49.223Z,7.00
2023-01-11T16:52:27.037Z,7.00
2023-01-11T16:54:58.171Z,6.90
2023-01-11T16:57:28.215Z,6.90
2023-01-11T17:00:02.306Z,6.80
2023-01-11T17:02:32.680Z,6.80
2023-01-11T17:04:59.439Z,6.80
2023-01-11T17:07:30.129Z,6.80
2023-01-11T17:10:15.690Z,6.80
2023-01-11T17:12:47.168Z,6.90
2023-01-11T17:15:26.034Z,6.80
2023-01-11T17:17:52.943Z,6.80
2023-01-11T17:20:20.912Z,6.80
2023-01-11T17:22:50.036Z,6.70
2023-01-11T17:25:22.629Z,6.70
2023-01-11T17:28:15.586Z,6.60
2023-01-11T17:30:45.269Z,6.60
2023-01-11T17:33:24.685Z,6.60
2023-01-11T17:35:51.444Z,6.60
2023-01-11T17:38:20.178Z,6.60
2023-01-11T17:40:47.039Z,6.50
2023-01-11T17:43:35.337Z,6.50
2023-01-11T17:46:02.779Z,6.50
2023-01-11T17:48:29.552Z,6.60
2023-01-11T17:50:57.402Z,6.60
2023-01-11T17:53:25.630Z,6.70
2023-01-11T17:55:56.342Z,6.70
2023-01-11T17:58:29.063Z,6.80
2023-01-11T18:01:05.148Z,6.80
2023-01-11T18:03:39.473Z,6.90
2023-01-11T18:06:24.581Z,6.90
2023-01-11T18:08:53.135Z,7.00
2023-01-11T18:11:24.172Z,7.10
2023-01-11T18:13:52.116Z,7.30
2023-01-11T18:16:19.610Z,7.50
2023-01-11T18:18:47.325Z,7.60
2023-01-11T18:21:39.956Z,7.70
2023-01-11T18:24:14.411Z,7.70
2023-01-11T18:26:42.053Z,7.70
2023-01-11T18:29:19.020Z,7.80
2023-01-11T18:31:48.197Z,7.80
2023-01-11T18:34:27.822Z,7.70
2023-01-11T18:37:01.435Z,7.80
2023-01-11T18:43:37.960Z,7.80
2023-01-11T18:45:41.354Z,7.80
2023-01-11T18:48:12.029Z,7.80
2023-01-11T18:50:39.772Z,7.80
2023-01-11T18:53:06.606Z,7.80
2023-01-11T18:55:45.583Z,8.10
2023-01-11T18:58:16.042Z,8.10
2023-01-11T19:01:23.689Z,7.90
2023-01-11T19:04:44.122Z,7.90
2023-01-11T19:08:08.780Z,7.90
2023-01-11T19:10:02.862Z,7.80
2023-01-11T19:12:29.571Z,7.80
2023-01-11T19:14:56.225Z,7.80
2023-01-11T19:17:22.896Z,7.70
2023-01-11T19:19:49.527Z,7.70
2023-01-11T19:33:32.004Z,7.70
2023-01-11T19:37:04.644Z,7.70
2023-01-11T19:39:09.880Z,7.70
2023-01-11T19:42:17.600Z,7.90
2023-01-11T19:44:44.355Z,7.90
2023-01-11T19:47:13.256Z,7.90
2023-01-11T19:49:41.068Z,7.80
2023-01-11T19:52:14.635Z,7.80
2023-01-11T19:54:42.148Z,7.80
2023-01-11T19:57:14.359Z,7.80
2023-01-11T19:59:41.568Z,7.80
2023-01-11T20:02:10.100Z,7.80
2023-01-11T20:04:37.433Z,7.90
2023-01-11T20:07:04.999Z,7.80
2023-01-11T20:09:31.904Z,7.80
2023-01-11T20:11:59.989Z,7.80
2023-01-11T20:14:27.898Z,7.80
2023-01-11T20:19:35.302Z,7.70
2023-01-11T20:22:01.989Z,7.70
2023-01-11T20:24:30.989Z,7.70
2023-01-11T20:27:00.625Z,7.70
2023-01-11T20:29:27.871Z,7.70
2023-01-11T20:31:54.678Z,7.60
2023-01-11T20:34:21.498Z,7.60
2023-01-11T20:36:48.988Z,7.60
2023-01-11T20:39:15.733Z,7.60
2023-01-11T20:41:48.941Z,7.60
2023-01-11T20:44:22.034Z,7.60
2023-01-11T20:46:58.938Z,7.60
2023-01-11T20:50:03.743Z,7.60
2023-01-11T20:52:40.771Z,7.60
2023-01-11T20:55:08.700Z,7.60
2023-01-11T20:57:35.283Z,7.60
2023-01-11T21:00:01.950Z,7.60
2023-01-11T21:02:28.517Z,7.60
2023-01-11T21:04:57.018Z,7.50
2023-01-11T21:07:23.647Z,7.50
2023-01-11T21:09:51.345Z,7.50
2023-01-11T21:12:19.545Z,7.50
2023-01-11T21:18:15.952Z,7.50
2023-01-11T21:20:49.817Z,7.50
2023-01-11T21:23:16.630Z,7.50
2023-01-11T21:26:13.936Z,7.50
2023-01-11T21:28:41.577Z,7.40
2023-01-11T21:31:13.015Z,7.40
2023-01-11T21:33:51.210Z,7.30
2023-01-11T21:39:18.747Z,7.30
2023-01-11T21:41:59.528Z,7.30
2023-01-11T21:44:30.582Z,7.30
2023-01-11T21:47:05.674Z,7.30
2023-01-11T21:49:36.578Z,7.30
2023-01-11T21:55:04.273Z,7.20
2023-01-11T21:57:30.891Z,7.20
2023-01-11T21:59:57.597Z,7.10
2023-01-11T22:02:24.205Z,7.10
2023-01-11T22:04:56.319Z,7.10
2023-01-11T22:07:24.637Z,7.10
2023-01-11T22:10:04.145Z,7.00
2023-01-11T22:12:32.679Z,7.00
2023-01-11T22:14:59.317Z,7.00
2023-01-11T22:20:55.512Z,7.00
2023-01-11T22:23:23.174Z,7.00
2023-01-11T22:27:12.413Z,7.00
2023-01-11T22:29:35.131Z,7.00
2023-01-11T22:32:04.336Z,6.90
2023-01-11T22:37:36.334Z,6.90
2023-01-11T22:41:53.717Z,6.90
2023-01-11T22:43:10.796Z,6.90
2023-01-11T22:45:37.469Z,6.70
2023-01-11T22:48:06.182Z,6.70
2023-01-11T22:50:32.936Z,6.80
2023-01-11T22:52:59.539Z,6.80
2023-01-11T22:55:26.461Z,6.80
2023-01-11T22:57:53.509Z,6.80
2023-01-11T23:00:20.316Z,6.80
2023-01-11T23:02:46.988Z,6.70
2023-01-11T23:05:13.693Z,6.70
2023-01-11T23:07:40.404Z,6.70
2023-01-11T23:10:08.548Z,6.70
2023-01-11T23:12:54.970Z,6.70
2023-01-11T23:15:21.652Z,6.70
2023-01-11T23:17:48.340Z,6.60
2023-01-11T23:20:15.036Z,6.60
2023-01-11T23:22:41.756Z,6.60
2023-01-11T23:25:08.723Z,6.60
2023-01-11T23:27:35.405Z,6.60
2023-01-11T23:30:02.015Z,6.50
2023-01-11T23:32:28.960Z,6.50
2023-01-11T23:34:55.641Z,6.50
2023-01-11T23:37:22.287Z,6.50
2023-01-11T23:39:48.834Z,6.50
2023-01-11T23:42:27.519Z,6.50
2023-01-11T23:44:54.984Z,6.50
2023-01-11T23:47:22.288Z,6.50
2023-01-11T23:49:49.777Z,6.50
2023-01-11T23:52:17.152Z,6.50
2023-01-11T23:54:45.470Z,6.50
2023-01-11T23:57:12.734Z,6.50
2023-01-11T23:59:40.380Z,6.50
